sensor_id;sensor_type;location;lat;lon;timestamp;P1;durP1;ratioP1;P2;durP2;ratioP2
20559;SDS011;10438;51.454;6.718;2023-03-13T00:00:30;18.57;;;3.57;;
20559;SDS011;10438;51.454;6.718;2023-03-13T00:02:56;22.77;;;3.67;;
20559;SDS011;10438;51.454;6.718;2023-03-13T00:05:21;23.93;;;3.70;;
20559;SDS011;10438;51.454;6.718;2023-03-13T00:07:47;25.90;;;4.00;;
20559;SDS011;10438;51.454;6.718;2023-03-13T00:10:12;13.77;;;3.03;;
20559;SDS011;10438;51.454;6.718;2023-03-13T00:12:38;21.13;;;4.10;;
20559;SDS011;10438;51.454;6.718;2023-03-13T00:15:03;22.23;;;3.47;;
20559;SDS011;10438;51.454;6.718;2023-03-13T00:17:29;19.13;;;3.37;;
20559;SDS011;10438;51.454;6.718;2023-03-13T00:19:55;22.07;;;3.83;;
20559;SDS011;10438;51.454;6.718;2023-03-13T00:22:21;22.87;;;4.37;;
20559;SDS011;10438;51.454;6.718;2023-03-13T00:24:46;17.47;;;3.53;;
20559;SDS011;10438;51.454;6.718;2023-03-13T00:27:12;17.43;;;3.07;;
20559;SDS011;10438;51.454;6.718;2023-03-13T00:29:37;17.93;;;3.90;;
20559;SDS011;10438;51.454;6.718;2023-03-13T00:32:03;20.83;;;3.37;;
20559;SDS011;10438;51.454;6.718;2023-03-13T00:34:29;21.73;;;3.60;;
20559;SDS011;10438;51.454;6.718;2023-03-13T00:36:55;18.40;;;3.53;;
20559;SDS011;10438;51.454;6.718;2023-03-13T00:39:21;20.57;;;3.50;;
20559;SDS011;10438;51.454;6.718;2023-03-13T00:41:46;20.87;;;3.77;;
20559;SDS011;10438;51.454;6.718;2023-03-13T00:44:12;24.97;;;4.03;;
20559;SDS011;10438;51.454;6.718;2023-03-13T00:46:38;24.70;;;4.53;;
20559;SDS011;10438;51.454;6.718;2023-03-13T00:49:03;20.63;;;4.03;;
20559;SDS011;10438;51.454;6.718;2023-03-13T00:51:29;22.27;;;4.50;;
20559;SDS011;10438;51.454;6.718;2023-03-13T00:53:56;22.20;;;4.57;;
20559;SDS011;10438;51.454;6.718;2023-03-13T00:56:25;22.40;;;5.13;;
20559;SDS011;10438;51.454;6.718;2023-03-13T00:58:51;34.50;;;5.17;;
20559;SDS011;10438;51.454;6.718;2023-03-13T01:01:21;26.60;;;4.40;;
20559;SDS011;10438;51.454;6.718;2023-03-13T01:03:50;31.53;;;5.47;;
20559;SDS011;10438;51.454;6.718;2023-03-13T01:06:24;18.70;;;4.97;;
20559;SDS011;10438;51.454;6.718;2023-03-13T01:08:54;29.83;;;6.63;;
20559;SDS011;10438;51.454;6.718;2023-03-13T01:11:21;24.17;;;4.23;;
20559;SDS011;10438;51.454;6.718;2023-03-13T01:13:59;20.67;;;4.37;;
20559;SDS011;10438;51.454;6.718;2023-03-13T01:16:27;28.87;;;5.20;;
20559;SDS011;10438;51.454;6.718;2023-03-13T01:18:55;26.60;;;4.80;;
20559;SDS011;10438;51.454;6.718;2023-03-13T01:21:23;24.37;;;4.50;;
20559;SDS011;10438;51.454;6.718;2023-03-13T01:23:49;21.47;;;4.30;;
20559;SDS011;10438;51.454;6.718;2023-03-13T01:26:16;24.33;;;4.50;;
20559;SDS011;10438;51.454;6.718;2023-03-13T01:28:42;26.23;;;4.63;;
20559;SDS011;10438;51.454;6.718;2023-03-13T01:33:47;18.73;;;4.07;;
20559;SDS011;10438;51.454;6.718;2023-03-13T01:36:15;21.03;;;3.47;;
20559;SDS011;10438;51.454;6.718;2023-03-13T01:38:41;24.00;;;3.93;;
20559;SDS011;10438;51.454;6.718;2023-03-13T01:41:07;24.53;;;3.90;;
20559;SDS011;10438;51.454;6.718;2023-03-13T01:43:35;21.77;;;3.07;;
20559;SDS011;10438;51.454;6.718;2023-03-13T01:46:03;21.70;;;3.80;;
20559;SDS011;10438;51.454;6.718;2023-03-13T01:51:05;14.73;;;3.20;;
20559;SDS011;10438;51.454;6.718;2023-03-13T01:53:34;18.40;;;3.67;;
20559;SDS011;10438;51.454;6.718;2023-03-13T01:56:03;17.00;;;3.10;;
20559;SDS011;10438;51.454;6.718;2023-03-13T01:58:31;20.13;;;3.57;;
20559;SDS011;10438;51.454;6.718;2023-03-13T02:00:57;24.63;;;3.40;;
20559;SDS011;10438;51.454;6.718;2023-03-13T02:03:24;22.77;;;4.37;;
20559;SDS011;10438;51.454;6.718;2023-03-13T02:05:52;19.67;;;3.87;;
20559;SDS011;10438;51.454;6.718;2023-03-13T02:08:39;21.07;;;3.30;;
20559;SDS011;10438;51.454;6.718;2023-03-13T02:13:57;20.17;;;3.77;;
20559;SDS011;10438;51.454;6.718;2023-03-13T02:16:24;21.47;;;4.07;;
20559;SDS011;10438;51.454;6.718;2023-03-13T02:18:50;21.33;;;3.50;;
20559;SDS011;10438;51.454;6.718;2023-03-13T02:21:22;16.43;;;3.67;;
20559;SDS011;10438;51.454;6.718;2023-03-13T02:23:53;19.20;;;3.77;;
20559;SDS011;10438;51.454;6.718;2023-03-13T02:26:25;24.63;;;2.93;;
20559;SDS011;10438;51.454;6.718;2023-03-13T02:28:50;24.30;;;3.37;;
20559;SDS011;10438;51.454;6.718;2023-03-13T02:31:16;17.93;;;3.70;;
20559;SDS011;10438;51.454;6.718;2023-03-13T02:33:42;20.67;;;2.87;;
20559;SDS011;10438;51.454;6.718;2023-03-13T02:36:08;22.67;;;3.33;;
20559;SDS011;10438;51.454;6.718;2023-03-13T02:38:38;20.97;;;3.33;;
20559;SDS011;10438;51.454;6.718;2023-03-13T02:41:30;17.20;;;3.50;;
20559;SDS011;10438;51.454;6.718;2023-03-13T02:43:58;17.60;;;3.40;;
20559;SDS011;10438;51.454;6.718;2023-03-13T02:46:24;15.70;;;3.10;;
20559;SDS011;10438;51.454;6.718;2023-03-13T02:48:50;18.33;;;3.27;;
20559;SDS011;10438;51.454;6.718;2023-03-13T02:51:21;14.27;;;3.23;;
20559;SDS011;10438;51.454;6.718;2023-03-13T02:53:56;17.10;;;2.67;;
20559;SDS011;10438;51.454;6.718;2023-03-13T02:56:25;18.67;;;3.33;;
20559;SDS011;10438;51.454;6.718;2023-03-13T02:58:53;16.87;;;3.00;;
20559;SDS011;10438;51.454;6.718;2023-03-13T03:01:19;18.07;;;3.57;;
20559;SDS011;10438;51.454;6.718;2023-03-13T03:03:44;15.93;;;2.30;;
20559;SDS011;10438;51.454;6.718;2023-03-13T03:06:10;12.97;;;2.43;;
20559;SDS011;10438;51.454;6.718;2023-03-13T03:08:35;15.77;;;2.87;;
20559;SDS011;10438;51.454;6.718;2023-03-13T03:11:05;10.63;;;3.30;;
20559;SDS011;10438;51.454;6.718;2023-03-13T03:13:31;12.07;;;2.13;;
20559;SDS011;10438;51.454;6.718;2023-03-13T03:15:57;15.77;;;2.73;;
20559;SDS011;10438;51.454;6.718;2023-03-13T03:18:23;15.07;;;2.37;;
20559;SDS011;10438;51.454;6.718;2023-03-13T03:20:48;13.73;;;2.43;;
20559;SDS011;10438;51.454;6.718;2023-03-13T03:23:14;12.60;;;2.23;;
20559;SDS011;10438;51.454;6.718;2023-03-13T03:25:39;11.40;;;2.67;;
20559;SDS011;10438;51.454;6.718;2023-03-13T03:28:05;11.67;;;2.30;;
20559;SDS011;10438;51.454;6.718;2023-03-13T03:30:30;9.23;;;1.83;;
20559;SDS011;10438;51.454;6.718;2023-03-13T03:32:56;7.43;;;1.93;;
20559;SDS011;10438;51.454;6.718;2023-03-13T03:35:21;7.70;;;2.03;;
20559;SDS011;10438;51.454;6.718;2023-03-13T03:37:47;6.03;;;1.73;;
20559;SDS011;10438;51.454;6.718;2023-03-13T03:40:12;8.80;;;2.53;;
20559;SDS011;10438;51.454;6.718;2023-03-13T03:42:38;8.17;;;2.40;;
20559;SDS011;10438;51.454;6.718;2023-03-13T03:45:03;9.80;;;3.23;;
20559;SDS011;10438;51.454;6.718;2023-03-13T03:47:29;10.90;;;3.93;;
20559;SDS011;10438;51.454;6.718;2023-03-13T03:49:55;10.03;;;3.30;;
20559;SDS011;10438;51.454;6.718;2023-03-13T03:52:20;10.13;;;3.67;;
20559;SDS011;10438;51.454;6.718;2023-03-13T03:54:46;12.77;;;4.40;;
20559;SDS011;10438;51.454;6.718;2023-03-13T03:57:11;11.70;;;3.50;;
20559;SDS011;10438;51.454;6.718;2023-03-13T03:59:37;9.90;;;3.10;;
20559;SDS011;10438;51.454;6.718;2023-03-13T04:02:02;11.87;;;4.20;;
20559;SDS011;10438;51.454;6.718;2023-03-13T04:04:28;7.90;;;3.60;;
20559;SDS011;10438;51.454;6.718;2023-03-13T04:06:53;10.93;;;3.73;;
20559;SDS011;10438;51.454;6.718;2023-03-13T04:09:19;8.53;;;2.87;;
20559;SDS011;10438;51.454;6.718;2023-03-13T04:11:45;10.00;;;3.93;;
20559;SDS011;10438;51.454;6.718;2023-03-13T04:14:10;10.40;;;3.20;;
20559;SDS011;10438;51.454;6.718;2023-03-13T04:16:36;8.50;;;3.23;;
20559;SDS011;10438;51.454;6.718;2023-03-13T04:19:01;6.60;;;2.83;;
20559;SDS011;10438;51.454;6.718;2023-03-13T04:21:27;5.73;;;2.20;;
20559;SDS011;10438;51.454;6.718;2023-03-13T04:23:52;5.80;;;2.80;;
20559;SDS011;10438;51.454;6.718;2023-03-13T04:26:18;9.20;;;3.10;;
20559;SDS011;10438;51.454;6.718;2023-03-13T04:28:43;7.37;;;3.23;;
20559;SDS011;10438;51.454;6.718;2023-03-13T04:31:09;7.87;;;3.10;;
20559;SDS011;10438;51.454;6.718;2023-03-13T04:33:34;5.27;;;2.30;;
20559;SDS011;10438;51.454;6.718;2023-03-13T04:36:01;6.63;;;2.23;;
20559;SDS011;10438;51.454;6.718;2023-03-13T04:38:26;5.97;;;2.30;;
20559;SDS011;10438;51.454;6.718;2023-03-13T04:40:52;4.87;;;2.70;;
20559;SDS011;10438;51.454;6.718;2023-03-13T04:43:17;5.47;;;2.50;;
20559;SDS011;10438;51.454;6.718;2023-03-13T04:45:43;7.30;;;2.70;;
20559;SDS011;10438;51.454;6.718;2023-03-13T04:48:08;5.50;;;2.33;;
20559;SDS011;10438;51.454;6.718;2023-03-13T04:50:34;7.87;;;2.43;;
20559;SDS011;10438;51.454;6.718;2023-03-13T04:52:59;5.57;;;2.70;;
20559;SDS011;10438;51.454;6.718;2023-03-13T04:55:25;6.13;;;2.60;;
20559;SDS011;10438;51.454;6.718;2023-03-13T04:57:50;7.30;;;3.47;;
20559;SDS011;10438;51.454;6.718;2023-03-13T05:00:16;8.37;;;2.60;;
20559;SDS011;10438;51.454;6.718;2023-03-13T05:02:42;6.80;;;2.53;;
20559;SDS011;10438;51.454;6.718;2023-03-13T05:05:07;4.73;;;2.50;;
20559;SDS011;10438;51.454;6.718;2023-03-13T05:07:33;5.90;;;3.03;;
20559;SDS011;10438;51.454;6.718;2023-03-13T05:09:58;6.60;;;3.10;;
20559;SDS011;10438;51.454;6.718;2023-03-13T05:12:24;4.63;;;2.20;;
20559;SDS011;10438;51.454;6.718;2023-03-13T05:14:49;6.00;;;2.60;;
20559;SDS011;10438;51.454;6.718;2023-03-13T05:17:15;5.67;;;2.77;;
20559;SDS011;10438;51.454;6.718;2023-03-13T05:19:41;5.77;;;3.00;;
20559;SDS011;10438;51.454;6.718;2023-03-13T05:22:07;7.17;;;3.10;;
20559;SDS011;10438;51.454;6.718;2023-03-13T05:24:33;6.63;;;3.27;;
20559;SDS011;10438;51.454;6.718;2023-03-13T05:26:59;5.93;;;3.17;;
20559;SDS011;10438;51.454;6.718;2023-03-13T05:29:24;6.30;;;3.00;;
20559;SDS011;10438;51.454;6.718;2023-03-13T05:31:51;5.83;;;2.80;;
20559;SDS011;10438;51.454;6.718;2023-03-13T05:34:17;7.47;;;2.77;;
20559;SDS011;10438;51.454;6.718;2023-03-13T05:36:42;7.83;;;2.57;;
20559;SDS011;10438;51.454;6.718;2023-03-13T05:39:08;9.70;;;3.40;;
20559;SDS011;10438;51.454;6.718;2023-03-13T05:41:33;6.30;;;3.20;;
20559;SDS011;10438;51.454;6.718;2023-03-13T05:43:59;7.43;;;3.70;;
20559;SDS011;10438;51.454;6.718;2023-03-13T05:46:25;9.43;;;3.90;;
20559;SDS011;10438;51.454;6.718;2023-03-13T05:48:50;8.47;;;3.20;;
20559;SDS011;10438;51.454;6.718;2023-03-13T05:51:16;7.50;;;3.30;;
20559;SDS011;10438;51.454;6.718;2023-03-13T05:53:42;6.67;;;2.83;;
20559;SDS011;10438;51.454;6.718;2023-03-13T05:56:08;7.87;;;3.53;;
20559;SDS011;10438;51.454;6.718;2023-03-13T05:58:33;6.93;;;3.40;;
20559;SDS011;10438;51.454;6.718;2023-03-13T06:00:59;7.47;;;3.60;;
20559;SDS011;10438;51.454;6.718;2023-03-13T06:03:33;5.27;;;2.90;;
20559;SDS011;10438;51.454;6.718;2023-03-13T06:05:58;6.57;;;3.00;;
20559;SDS011;10438;51.454;6.718;2023-03-13T06:08:24;5.83;;;2.70;;
20559;SDS011;10438;51.454;6.718;2023-03-13T06:10:50;6.53;;;3.33;;
20559;SDS011;10438;51.454;6.718;2023-03-13T06:13:15;7.37;;;3.67;;
20559;SDS011;10438;51.454;6.718;2023-03-13T06:15:41;5.63;;;3.30;;
20559;SDS011;10438;51.454;6.718;2023-03-13T06:18:06;6.40;;;3.17;;
20559;SDS011;10438;51.454;6.718;2023-03-13T06:20:32;8.77;;;3.43;;
20559;SDS011;10438;51.454;6.718;2023-03-13T06:22:57;9.00;;;3.23;;
20559;SDS011;10438;51.454;6.718;2023-03-13T06:25:23;7.47;;;3.70;;
20559;SDS011;10438;51.454;6.718;2023-03-13T06:27:49;8.40;;;3.10;;
20559;SDS011;10438;51.454;6.718;2023-03-13T06:30:15;6.10;;;3.30;;
20559;SDS011;10438;51.454;6.718;2023-03-13T06:32:41;7.00;;;2.93;;
20559;SDS011;10438;51.454;6.718;2023-03-13T06:35:06;6.83;;;3.23;;
20559;SDS011;10438;51.454;6.718;2023-03-13T06:37:32;10.07;;;3.20;;
20559;SDS011;10438;51.454;6.718;2023-03-13T06:39:58;6.13;;;2.93;;
20559;SDS011;10438;51.454;6.718;2023-03-13T06:42:23;14.53;;;6.17;;
20559;SDS011;10438;51.454;6.718;2023-03-13T06:44:49;7.57;;;3.23;;
20559;SDS011;10438;51.454;6.718;2023-03-13T06:47:14;8.57;;;2.60;;
20559;SDS011;10438;51.454;6.718;2023-03-13T06:49:40;6.50;;;2.63;;
20559;SDS011;10438;51.454;6.718;2023-03-13T06:52:05;9.07;;;2.40;;
20559;SDS011;10438;51.454;6.718;2023-03-13T06:54:31;9.07;;;3.23;;
20559;SDS011;10438;51.454;6.718;2023-03-13T06:56:56;7.40;;;2.40;;
20559;SDS011;10438;51.454;6.718;2023-03-13T06:59:22;9.30;;;1.90;;
20559;SDS011;10438;51.454;6.718;2023-03-13T07:01:47;7.57;;;2.60;;
20559;SDS011;10438;51.454;6.718;2023-03-13T07:04:13;6.20;;;2.37;;
20559;SDS011;10438;51.454;6.718;2023-03-13T07:06:38;11.87;;;3.07;;
20559;SDS011;10438;51.454;6.718;2023-03-13T07:09:04;8.03;;;2.30;;
20559;SDS011;10438;51.454;6.718;2023-03-13T07:11:29;11.00;;;3.33;;
20559;SDS011;10438;51.454;6.718;2023-03-13T07:13:55;7.67;;;2.67;;
20559;SDS011;10438;51.454;6.718;2023-03-13T07:16:21;7.87;;;2.57;;
20559;SDS011;10438;51.454;6.718;2023-03-13T07:18:47;7.63;;;2.57;;
20559;SDS011;10438;51.454;6.718;2023-03-13T07:21:12;14.27;;;2.63;;
20559;SDS011;10438;51.454;6.718;2023-03-13T07:23:38;9.67;;;2.77;;
20559;SDS011;10438;51.454;6.718;2023-03-13T07:26:09;9.40;;;2.67;;
20559;SDS011;10438;51.454;6.718;2023-03-13T07:28:36;7.90;;;2.43;;
20559;SDS011;10438;51.454;6.718;2023-03-13T07:31:06;25.20;;;4.97;;
20559;SDS011;10438;51.454;6.718;2023-03-13T07:33:37;23.80;;;4.40;;
20559;SDS011;10438;51.454;6.718;2023-03-13T07:36:03;34.63;;;4.47;;
20559;SDS011;10438;51.454;6.718;2023-03-13T07:38:29;34.20;;;4.50;;
20559;SDS011;10438;51.454;6.718;2023-03-13T07:40:55;42.30;;;4.33;;
20559;SDS011;10438;51.454;6.718;2023-03-13T07:43:22;18.63;;;3.20;;
20559;SDS011;10438;51.454;6.718;2023-03-13T07:45:55;19.27;;;3.90;;
20559;SDS011;10438;51.454;6.718;2023-03-13T07:48:44;37.23;;;5.10;;
20559;SDS011;10438;51.454;6.718;2023-03-13T07:51:12;30.43;;;4.40;;
20559;SDS011;10438;51.454;6.718;2023-03-13T07:53:39;30.23;;;4.10;;
20559;SDS011;10438;51.454;6.718;2023-03-13T07:56:05;29.13;;;4.20;;
20559;SDS011;10438;51.454;6.718;2023-03-13T07:58:39;31.70;;;3.57;;
20559;SDS011;10438;51.454;6.718;2023-03-13T08:01:09;35.47;;;5.13;;
20559;SDS011;10438;51.454;6.718;2023-03-13T08:03:40;33.30;;;4.20;;
20559;SDS011;10438;51.454;6.718;2023-03-13T08:06:10;20.20;;;3.73;;
20559;SDS011;10438;51.454;6.718;2023-03-13T08:08:41;56.07;;;7.73;;
20559;SDS011;10438;51.454;6.718;2023-03-13T08:11:08;44.07;;;5.80;;
20559;SDS011;10438;51.454;6.718;2023-03-13T08:13:35;25.27;;;3.30;;
20559;SDS011;10438;51.454;6.718;2023-03-13T08:16:05;19.23;;;3.53;;
20559;SDS011;10438;51.454;6.718;2023-03-13T08:18:36;16.30;;;3.27;;
20559;SDS011;10438;51.454;6.718;2023-03-13T08:21:04;24.77;;;3.73;;
20559;SDS011;10438;51.454;6.718;2023-03-13T08:23:40;20.87;;;2.83;;
20559;SDS011;10438;51.454;6.718;2023-03-13T08:26:07;9.90;;;2.30;;
20559;SDS011;10438;51.454;6.718;2023-03-13T08:28:33;24.57;;;3.07;;
20559;SDS011;10438;51.454;6.718;2023-03-13T08:31:10;16.63;;;2.60;;
20559;SDS011;10438;51.454;6.718;2023-03-13T08:33:41;12.00;;;2.93;;
20559;SDS011;10438;51.454;6.718;2023-03-13T08:36:09;10.50;;;2.83;;
20559;SDS011;10438;51.454;6.718;2023-03-13T08:38:47;5.60;;;2.13;;
20559;SDS011;10438;51.454;6.718;2023-03-13T08:41:23;8.00;;;2.03;;
20559;SDS011;10438;51.454;6.718;2023-03-13T08:43:53;11.13;;;2.60;;
20559;SDS011;10438;51.454;6.718;2023-03-13T08:46:20;11.10;;;2.50;;
20559;SDS011;10438;51.454;6.718;2023-03-13T08:48:50;15.07;;;2.97;;
20559;SDS011;10438;51.454;6.718;2023-03-13T08:51:17;19.83;;;3.13;;
20559;SDS011;10438;51.454;6.718;2023-03-13T08:53:43;14.77;;;2.50;;
20559;SDS011;10438;51.454;6.718;2023-03-13T08:56:10;15.60;;;2.73;;
20559;SDS011;10438;51.454;6.718;2023-03-13T08:58:37;8.43;;;1.70;;
20559;SDS011;10438;51.454;6.718;2023-03-13T09:01:04;17.00;;;3.60;;
20559;SDS011;10438;51.454;6.718;2023-03-13T09:03:31;27.60;;;4.20;;
20559;SDS011;10438;51.454;6.718;2023-03-13T09:06:00;34.23;;;4.23;;
20559;SDS011;10438;51.454;6.718;2023-03-13T09:08:26;26.47;;;4.50;;
20559;SDS011;10438;51.454;6.718;2023-03-13T09:11:12;33.20;;;3.87;;
20559;SDS011;10438;51.454;6.718;2023-03-13T09:13:41;15.40;;;2.90;;
20559;SDS011;10438;51.454;6.718;2023-03-13T09:16:08;33.83;;;4.47;;
20559;SDS011;10438;51.454;6.718;2023-03-13T09:18:36;15.70;;;3.57;;
20559;SDS011;10438;51.454;6.718;2023-03-13T09:21:02;19.97;;;3.53;;
20559;SDS011;10438;51.454;6.718;2023-03-13T09:23:30;21.70;;;3.58;;
20559;SDS011;10438;51.454;6.718;2023-03-13T09:25:56;24.17;;;4.53;;
20559;SDS011;10438;51.454;6.718;2023-03-13T09:28:22;27.83;;;4.13;;
20559;SDS011;10438;51.454;6.718;2023-03-13T09:30:49;37.28;;;6.18;;
20559;SDS011;10438;51.454;6.718;2023-03-13T09:33:15;24.13;;;4.20;;
20559;SDS011;10438;51.454;6.718;2023-03-13T09:35:41;32.42;;;4.95;;
20559;SDS011;10438;51.454;6.718;2023-03-13T09:38:07;48.88;;;5.00;;
20559;SDS011;10438;51.454;6.718;2023-03-13T09:40:43;28.52;;;3.75;;
20559;SDS011;10438;51.454;6.718;2023-03-13T09:43:19;23.73;;;3.80;;
20559;SDS011;10438;51.454;6.718;2023-03-13T09:45:48;23.70;;;3.55;;
20559;SDS011;10438;51.454;6.718;2023-03-13T09:48:38;13.48;;;3.42;;
20559;SDS011;10438;51.454;6.718;2023-03-13T09:51:17;19.48;;;3.35;;
20559;SDS011;10438;51.454;6.718;2023-03-13T09:53:49;13.25;;;2.67;;
20559;SDS011;10438;51.454;6.718;2023-03-13T09:56:24;7.90;;;2.17;;
20559;SDS011;10438;51.454;6.718;2023-03-13T09:58:54;6.68;;;2.53;;
20559;SDS011;10438;51.454;6.718;2023-03-13T10:01:27;7.28;;;2.33;;
20559;SDS011;10438;51.454;6.718;2023-03-13T10:04:00;10.70;;;2.70;;
20559;SDS011;10438;51.454;6.718;2023-03-13T10:06:37;7.65;;;2.40;;
20559;SDS011;10438;51.454;6.718;2023-03-13T10:09:15;11.73;;;2.92;;
20559;SDS011;10438;51.454;6.718;2023-03-13T10:11:49;8.98;;;2.30;;
20559;SDS011;10438;51.454;6.718;2023-03-13T10:14:28;6.05;;;1.90;;
20559;SDS011;10438;51.454;6.718;2023-03-13T10:19:59;7.47;;;2.10;;
20559;SDS011;10438;51.454;6.718;2023-03-13T10:22:43;6.53;;;1.90;;
20559;SDS011;10438;51.454;6.718;2023-03-13T10:27:50;18.38;;;2.65;;
20559;SDS011;10438;51.454;6.718;2023-03-13T10:30:21;14.70;;;2.47;;
20559;SDS011;10438;51.454;6.718;2023-03-13T10:35:32;6.75;;;1.73;;
20559;SDS011;10438;51.454;6.718;2023-03-13T10:38:02;10.90;;;2.15;;
20559;SDS011;10438;51.454;6.718;2023-03-13T10:40:34;8.75;;;2.17;;
20559;SDS011;10438;51.454;6.718;2023-03-13T10:43:02;15.20;;;2.42;;
20559;SDS011;10438;51.454;6.718;2023-03-13T10:45:33;11.43;;;1.63;;
20559;SDS011;10438;51.454;6.718;2023-03-13T10:48:09;9.70;;;2.03;;
20559;SDS011;10438;51.454;6.718;2023-03-13T10:50:43;47.78;;;6.20;;
20559;SDS011;10438;51.454;6.718;2023-03-13T10:55:53;28.83;;;3.63;;
20559;SDS011;10438;51.454;6.718;2023-03-13T11:01:20;16.25;;;2.00;;
20559;SDS011;10438;51.454;6.718;2023-03-13T11:03:48;17.08;;;2.45;;
20559;SDS011;10438;51.454;6.718;2023-03-13T11:06:30;20.65;;;2.83;;
20559;SDS011;10438;51.454;6.718;2023-03-13T11:11:28;11.23;;;1.83;;
20559;SDS011;10438;51.454;6.718;2023-03-13T11:14:06;14.93;;;2.33;;
20559;SDS011;10438;51.454;6.718;2023-03-13T11:16:34;17.00;;;1.70;;
20559;SDS011;10438;51.454;6.718;2023-03-13T11:19:13;7.20;;;1.50;;
20559;SDS011;10438;51.454;6.718;2023-03-13T11:21:52;9.43;;;1.70;;
20559;SDS011;10438;51.454;6.718;2023-03-13T11:27:30;10.25;;;1.42;;
20559;SDS011;10438;51.454;6.718;2023-03-13T11:32:50;7.88;;;1.65;;
20559;SDS011;10438;51.454;6.718;2023-03-13T11:38:17;7.50;;;1.38;;
20559;SDS011;10438;51.454;6.718;2023-03-13T11:40:51;27.58;;;3.83;;
20559;SDS011;10438;51.454;6.718;2023-03-13T11:43:49;34.78;;;3.03;;
20559;SDS011;10438;51.454;6.718;2023-03-13T11:46:29;9.50;;;1.85;;
20559;SDS011;10438;51.454;6.718;2023-03-13T11:51:57;9.93;;;1.15;;
20559;SDS011;10438;51.454;6.718;2023-03-13T12:02:55;8.98;;;0.90;;
20559;SDS011;10438;51.454;6.718;2023-03-13T12:05:52;4.82;;;0.77;;
20559;SDS011;10438;51.454;6.718;2023-03-13T12:08:22;2.70;;;0.70;;
20559;SDS011;10438;51.454;6.718;2023-03-13T12:11:11;2.78;;;0.65;;
20559;SDS011;10438;51.454;6.718;2023-03-13T12:13:41;8.25;;;0.95;;
20559;SDS011;10438;51.454;6.718;2023-03-13T12:16:11;2.65;;;0.90;;
20559;SDS011;10438;51.454;6.718;2023-03-13T12:18:41;4.40;;;0.70;;
20559;SDS011;10438;51.454;6.718;2023-03-13T12:21:19;1.67;;;0.60;;
20559;SDS011;10438;51.454;6.718;2023-03-13T12:24:18;4.82;;;0.70;;
20559;SDS011;10438;51.454;6.718;2023-03-13T12:27:08;2.65;;;0.80;;
20559;SDS011;10438;51.454;6.718;2023-03-13T12:29:47;3.40;;;1.08;;
20559;SDS011;10438;51.454;6.718;2023-03-13T12:32:39;2.30;;;0.70;;
20559;SDS011;10438;51.454;6.718;2023-03-13T12:37:50;3.28;;;0.82;;
20559;SDS011;10438;51.454;6.718;2023-03-13T12:40:24;4.22;;;0.77;;
20559;SDS011;10438;51.454;6.718;2023-03-13T12:45:32;3.33;;;0.90;;
20559;SDS011;10438;51.454;6.718;2023-03-13T12:54:01;8.23;;;1.30;;
20559;SDS011;10438;51.454;6.718;2023-03-13T12:59:15;18.30;;;1.85;;
20559;SDS011;10438;51.454;6.718;2023-03-13T13:01:45;6.18;;;1.70;;
20559;SDS011;10438;51.454;6.718;2023-03-13T13:04:21;12.40;;;2.03;;
20559;SDS011;10438;51.454;6.718;2023-03-13T13:07:17;26.77;;;3.35;;
20559;SDS011;10438;51.454;6.718;2023-03-13T13:10:32;13.88;;;2.00;;
20559;SDS011;10438;51.454;6.718;2023-03-13T13:12:44;23.27;;;2.40;;
20559;SDS011;10438;51.454;6.718;2023-03-13T13:15:16;9.13;;;0.95;;
20559;SDS011;10438;51.454;6.718;2023-03-13T13:17:56;2.72;;;0.68;;
20559;SDS011;10438;51.454;6.718;2023-03-13T13:25:53;9.85;;;1.08;;
20559;SDS011;10438;51.454;6.718;2023-03-13T13:28:31;5.15;;;1.00;;
20559;SDS011;10438;51.454;6.718;2023-03-13T13:30:59;3.20;;;0.90;;
20559;SDS011;10438;51.454;6.718;2023-03-13T13:33:33;10.82;;;1.17;;
20559;SDS011;10438;51.454;6.718;2023-03-13T13:38:45;2.88;;;0.80;;
20559;SDS011;10438;51.454;6.718;2023-03-13T13:43:46;6.75;;;1.75;;
20559;SDS011;10438;51.454;6.718;2023-03-13T13:49:05;9.20;;;1.20;;
20559;SDS011;10438;51.454;6.718;2023-03-13T13:51:32;24.15;;;2.45;;
20559;SDS011;10438;51.454;6.718;2023-03-13T13:54:03;3.63;;;0.98;;
20559;SDS011;10438;51.454;6.718;2023-03-13T13:56:42;3.80;;;0.98;;
20559;SDS011;10438;51.454;6.718;2023-03-13T13:59:22;3.33;;;0.80;;
20559;SDS011;10438;51.454;6.718;2023-03-13T14:04:35;2.65;;;1.30;;
20559;SDS011;10438;51.454;6.718;2023-03-13T14:07:15;3.50;;;0.90;;
20559;SDS011;10438;51.454;6.718;2023-03-13T14:15:22;4.10;;;1.00;;
20559;SDS011;10438;51.454;6.718;2023-03-13T14:17:51;2.38;;;0.73;;
20559;SDS011;10438;51.454;6.718;2023-03-13T14:22:55;1.83;;;0.70;;
20559;SDS011;10438;51.454;6.718;2023-03-13T14:25:24;4.47;;;0.90;;
20559;SDS011;10438;51.454;6.718;2023-03-13T14:27:51;5.20;;;2.78;;
20559;SDS011;10438;51.454;6.718;2023-03-13T14:30:18;1.88;;;0.85;;
20559;SDS011;10438;51.454;6.718;2023-03-13T14:32:45;2.45;;;0.70;;
20559;SDS011;10438;51.454;6.718;2023-03-13T14:35:13;5.43;;;0.70;;
20559;SDS011;10438;51.454;6.718;2023-03-13T14:43:03;3.45;;;1.00;;
20559;SDS011;10438;51.454;6.718;2023-03-13T14:45:29;2.42;;;0.70;;
20559;SDS011;10438;51.454;6.718;2023-03-13T14:48:03;3.80;;;1.10;;
20559;SDS011;10438;51.454;6.718;2023-03-13T14:50:38;4.00;;;0.80;;
20559;SDS011;10438;51.454;6.718;2023-03-13T14:53:09;3.53;;;0.90;;
20559;SDS011;10438;51.454;6.718;2023-03-13T14:55:37;3.38;;;1.00;;
20559;SDS011;10438;51.454;6.718;2023-03-13T14:58:26;5.22;;;1.48;;
20559;SDS011;10438;51.454;6.718;2023-03-13T15:00:52;7.07;;;1.30;;
20559;SDS011;10438;51.454;6.718;2023-03-13T15:03:20;5.47;;;1.08;;
20559;SDS011;10438;51.454;6.718;2023-03-13T15:08:35;4.25;;;0.98;;
20559;SDS011;10438;51.454;6.718;2023-03-13T15:11:15;3.60;;;1.00;;
20559;SDS011;10438;51.454;6.718;2023-03-13T15:13:45;2.60;;;0.90;;
20559;SDS011;10438;51.454;6.718;2023-03-13T15:16:15;11.18;;;1.00;;
20559;SDS011;10438;51.454;6.718;2023-03-13T15:18:44;3.58;;;1.10;;
20559;SDS011;10438;51.454;6.718;2023-03-13T15:23:44;5.88;;;1.45;;
20559;SDS011;10438;51.454;6.718;2023-03-13T15:26:31;4.55;;;1.10;;
20559;SDS011;10438;51.454;6.718;2023-03-13T15:28:56;2.05;;;0.70;;
20559;SDS011;10438;51.454;6.718;2023-03-13T15:31:22;4.45;;;0.88;;
20559;SDS011;10438;51.454;6.718;2023-03-13T15:33:53;4.22;;;0.90;;
20559;SDS011;10438;51.454;6.718;2023-03-13T15:36:26;4.57;;;1.67;;
20559;SDS011;10438;51.454;6.718;2023-03-13T15:38:52;4.93;;;1.80;;
20559;SDS011;10438;51.454;6.718;2023-03-13T15:41:19;4.63;;;1.50;;
20559;SDS011;10438;51.454;6.718;2023-03-13T15:43:45;5.20;;;0.93;;
20559;SDS011;10438;51.454;6.718;2023-03-13T15:46:16;5.75;;;1.40;;
20559;SDS011;10438;51.454;6.718;2023-03-13T15:48:42;5.65;;;1.08;;
20559;SDS011;10438;51.454;6.718;2023-03-13T15:51:09;4.18;;;1.27;;
20559;SDS011;10438;51.454;6.718;2023-03-13T15:53:37;4.07;;;1.00;;
20559;SDS011;10438;51.454;6.718;2023-03-13T15:56:05;5.55;;;1.17;;
20559;SDS011;10438;51.454;6.718;2023-03-13T15:58:43;5.60;;;1.10;;
20559;SDS011;10438;51.454;6.718;2023-03-13T16:01:10;4.57;;;1.20;;
20559;SDS011;10438;51.454;6.718;2023-03-13T16:03:36;5.47;;;1.20;;
20559;SDS011;10438;51.454;6.718;2023-03-13T16:06:04;6.43;;;1.20;;
20559;SDS011;10438;51.454;6.718;2023-03-13T16:08:42;4.65;;;1.27;;
20559;SDS011;10438;51.454;6.718;2023-03-13T16:11:09;7.32;;;1.35;;
20559;SDS011;10438;51.454;6.718;2023-03-13T16:13:37;5.93;;;1.48;;
20559;SDS011;10438;51.454;6.718;2023-03-13T16:16:08;7.32;;;2.30;;
20559;SDS011;10438;51.454;6.718;2023-03-13T16:18:46;5.85;;;1.92;;
20559;SDS011;10438;51.454;6.718;2023-03-13T16:21:17;4.53;;;1.77;;
20559;SDS011;10438;51.454;6.718;2023-03-13T16:23:48;9.27;;;1.80;;
20559;SDS011;10438;51.454;6.718;2023-03-13T16:26:15;5.07;;;1.05;;